Time;durP1;ratioP1;P1;durP2;ratioP2;P2;SDS_P1;SDS_P2;PMS_P1;PMS_P2;Temp;Humidity;BMP_temperature;BMP_pressure;BME280_temperature;BME280_humidity;BME280_pressure;Samples;Min_cycle;Max_cycle;Signal;HPM_P1;HPM_P2
2021/05/29 00:00:12;;;;;;;3.92;2.45;;;;;;;;;;4990258;28;20041;-46
2021/05/29 00:02:38;;;;;;;2.42;2.13;;;;;;;;;;4990142;28;20026;-45
2021/05/29 00:05:06;;;;;;;5.45;2.33;;;;;;;;;;4989861;28;20121;-46
2021/05/29 00:07:32;;;;;;;5.65;2.22;;;;;;;;;;4990093;28;20022;-46
2021/05/29 00:09:58;;;;;;;3.08;1.60;;;;;;;;;;4991046;28;20084;-46
2021/05/29 00:12:24;;;;;;;4.10;2.30;;;;;;;;;;4990610;28;20022;-45
2021/05/29 00:14:50;;;;;;;2.25;2.00;;;;;;;;;;4990849;28;20042;-45
2021/05/29 00:17:18;;;;;;;9.80;1.77;;;;;;;;;;4989924;28;20035;-46
2021/05/29 00:19:44;;;;;;;4.28;2.30;;;;;;;;;;4988359;28;20025;-45
2021/05/29 00:22:10;;;;;;;4.35;2.20;;;;;;;;;;4973838;28;20031;-46
2021/05/29 00:24:36;;;;;;;6.20;2.40;;;;;;;;;;4974777;28;20041;-46
2021/05/29 00:27:02;;;;;;;4.65;2.55;;;;;;;;;;4976229;28;20054;-45
2021/05/29 00:29:28;;;;;;;3.17;2.38;;;;;;;;;;4974967;28;20109;-46
2021/05/29 00:31:54;;;;;;;4.03;2.45;;;;;;;;;;4974779;28;20023;-46
2021/05/29 00:34:20;;;;;;;5.55;2.20;;;;;;;;;;4980518;28;20037;-46
2021/05/29 00:36:46;;;;;;;2.20;1.83;;;;;;;;;;4994271;28;20360;-46
2021/05/29 00:39:12;;;;;;;2.88;2.17;;;;;;;;;;4976395;28;20065;-46
2021/05/29 00:41:38;;;;;;;3.67;2.30;;;;;;;;;;4992293;28;20029;-45
2021/05/29 00:44:05;;;;;;;4.15;2.15;;;;;;;;;;4994153;28;20436;-45
2021/05/29 00:46:31;;;;;;;2.10;1.90;;;;;;;;;;4994877;28;20202;-48
2021/05/29 00:48:57;;;;;;;3.63;1.88;;;;;;;;;;4982356;28;20488;-46
2021/05/29 00:51:23;;;;;;;4.70;2.33;;;;;;;;;;4973664;28;20018;-46
2021/05/29 00:53:49;;;;;;;2.83;1.80;;;;;;;;;;4973698;28;20035;-46
2021/05/29 00:56:15;;;;;;;8.27;2.38;;;;;;;;;;4974511;28;20516;-47
2021/05/29 00:58:42;;;;;;;4.15;2.28;;;;;;;;;;4975720;28;20527;-46
2021/05/29 01:01:08;;;;;;;7.25;1.88;;;;;;;;;;4973505;28;20449;-46
2021/05/29 01:03:37;;;;;;;3.05;2.42;;;;;;;;;;4983923;28;20022;-46
2021/05/29 01:06:04;;;;;;;3.50;2.33;;;;;;;;;;4993817;28;20041;-48
2021/05/29 01:08:31;;;;;;;6.20;2.30;;;;;;;;;;4993519;28;20030;-46
2021/05/29 01:10:57;;;;;;;3.58;2.22;;;;;;;;;;4992400;28;20427;-46
2021/05/29 01:13:29;;;;;;;3.67;2.78;;;;;;;;;;4993531;28;20022;-47
2021/05/29 01:16:00;;;;;;;4.30;2.25;;;;;;;;;;4993531;28;20088;-46
2021/05/29 01:18:26;;;;;;;4.20;2.13;;;;;;;;;;4993568;28;20456;-45
2021/05/29 01:20:52;;;;;;;2.45;2.15;;;;;;;;;;4992139;28;20033;-46
2021/05/29 01:23:18;;;;;;;2.78;1.98;;;;;;;;;;4993400;28;20022;-47
2021/05/29 01:25:46;;;;;;;3.30;2.15;;;;;;;;;;4993263;28;20034;-46
2021/05/29 01:28:14;;;;;;;3.20;1.98;;;;;;;;;;4993859;28;20033;-46
2021/05/29 01:30:43;;;;;;;2.90;2.13;;;;;;;;;;4987595;28;20051;-46
2021/05/29 01:33:19;;;;;;;4.27;1.93;;;;;;;;;;4973635;28;20492;-46
2021/05/29 01:35:45;;;;;;;2.20;1.75;;;;;;;;;;4973951;28;20031;-46
2021/05/29 01:38:12;;;;;;;6.20;1.92;;;;;;;;;;4974294;28;20023;-46
2021/05/29 01:40:39;;;;;;;4.50;2.40;;;;;;;;;;4972780;28;20109;-46
2021/05/29 01:43:05;;;;;;;3.47;1.88;;;;;;;;;;4989159;28;20036;-46
2021/05/29 01:45:31;;;;;;;5.50;2.13;;;;;;;;;;4980791;28;20058;-46
2021/05/29 01:47:57;;;;;;;2.45;2.00;;;;;;;;;;4973791;28;20026;-45
2021/05/29 01:50:24;;;;;;;2.25;1.67;;;;;;;;;;4972989;28;20034;-45
2021/05/29 01:52:58;;;;;;;5.38;2.05;;;;;;;;;;4974812;28;20110;-46
2021/05/29 01:55:25;;;;;;;3.40;2.00;;;;;;;;;;4971759;28;20086;-45
2021/05/29 01:57:52;;;;;;;3.33;1.90;;;;;;;;;;4973242;28;20650;-46
2021/05/29 02:00:19;;;;;;;2.00;1.80;;;;;;;;;;4974553;28;20061;-45
2021/05/29 02:02:45;;;;;;;2.03;1.67;;;;;;;;;;4991511;28;20463;-46
2021/05/29 02:05:12;;;;;;;3.75;1.70;;;;;;;;;;4983897;28;20034;-46
2021/05/29 02:07:38;;;;;;;3.65;1.77;;;;;;;;;;4979684;28;20022;-46
2021/05/29 02:10:04;;;;;;;2.10;1.65;;;;;;;;;;4991842;28;20464;-46
2021/05/29 02:12:36;;;;;;;2.42;1.65;;;;;;;;;;4984709;28;20518;-46
2021/05/29 02:15:03;;;;;;;2.15;1.67;;;;;;;;;;4992326;28;20097;-46
2021/05/29 02:17:29;;;;;;;1.77;1.45;;;;;;;;;;4992719;28;20101;-46
2021/05/29 02:19:55;;;;;;;2.25;1.73;;;;;;;;;;4991775;28;20110;-46
2021/05/29 02:22:21;;;;;;;2.45;1.70;;;;;;;;;;4991641;28;20030;-46
2021/05/29 02:24:47;;;;;;;4.50;1.98;;;;;;;;;;4989348;28;20393;-46
2021/05/29 02:27:13;;;;;;;2.70;1.60;;;;;;;;;;4992183;28;20081;-45
2021/05/29 02:29:39;;;;;;;3.80;1.73;;;;;;;;;;4992120;28;20448;-46
2021/05/29 02:32:05;;;;;;;2.85;2.17;;;;;;;;;;4977657;28;20361;-46
2021/05/29 02:34:31;;;;;;;2.53;1.90;;;;;;;;;;4976712;28;20031;-46
2021/05/29 02:36:57;;;;;;;2.85;1.60;;;;;;;;;;4992154;28;20033;-45
2021/05/29 02:39:23;;;;;;;3.25;1.85;;;;;;;;;;4990997;28;20026;-46
2021/05/29 02:41:49;;;;;;;2.85;2.10;;;;;;;;;;4971588;28;20151;-46
2021/05/29 02:44:15;;;;;;;3.08;1.95;;;;;;;;;;4972271;28;20147;-46
2021/05/29 02:46:41;;;;;;;3.97;1.90;;;;;;;;;;4988525;28;20476;-46
2021/05/29 02:49:07;;;;;;;2.45;1.80;;;;;;;;;;4979906;28;20046;-45
2021/05/29 02:51:33;;;;;;;4.97;1.90;;;;;;;;;;4971497;28;20060;-46
2021/05/29 02:53:59;;;;;;;2.80;2.03;;;;;;;;;;4974891;28;20026;-46
2021/05/29 02:56:25;;;;;;;2.40;1.70;;;;;;;;;;4990206;28;20073;-46
2021/05/29 02:58:51;;;;;;;6.22;2.17;;;;;;;;;;4991948;28;20428;-46
2021/05/29 03:01:17;;;;;;;2.70;1.33;;;;;;;;;;4990912;28;20029;-46
2021/05/29 03:03:43;;;;;;;2.45;1.88;;;;;;;;;;4980716;28;20030;-47
2021/05/29 03:06:09;;;;;;;2.10;1.75;;;;;;;;;;4973498;28;20046;-46
2021/05/29 03:08:35;;;;;;;3.20;1.63;;;;;;;;;;4986682;28;20117;-46
2021/05/29 03:11:01;;;;;;;2.45;1.70;;;;;;;;;;4990643;28;20101;-45
2021/05/29 03:13:27;;;;;;;2.70;1.95;;;;;;;;;;4991673;28;20474;-45
2021/05/29 03:15:53;;;;;;;4.93;1.60;;;;;;;;;;4991322;28;20567;-46
2021/05/29 03:18:19;;;;;;;5.05;1.85;;;;;;;;;;4977909;28;20044;-46
2021/05/29 03:20:45;;;;;;;2.90;1.92;;;;;;;;;;4986832;28;20460;-46
2021/05/29 03:23:11;;;;;;;3.05;1.60;;;;;;;;;;4991127;28;20038;-45
2021/05/29 03:25:37;;;;;;;3.50;1.90;;;;;;;;;;4991805;28;20027;-46
2021/05/29 03:28:04;;;;;;;2.17;1.80;;;;;;;;;;4989327;28;20030;-48
2021/05/29 03:30:31;;;;;;;5.25;1.92;;;;;;;;;;4990304;28;20475;-46
2021/05/29 03:32:57;;;;;;;4.43;2.35;;;;;;;;;;4990621;28;20034;-45
2021/05/29 03:35:24;;;;;;;4.28;1.90;;;;;;;;;;4976425;28;20035;-46
2021/05/29 03:37:50;;;;;;;2.55;2.05;;;;;;;;;;4974962;28;20018;-46
2021/05/29 03:40:16;;;;;;;4.28;2.03;;;;;;;;;;4981343;28;20077;-46
2021/05/29 03:42:43;;;;;;;2.58;1.80;;;;;;;;;;4972327;28;20566;-46
2021/05/29 03:45:11;;;;;;;2.65;2.28;;;;;;;;;;4970883;28;20058;-46
2021/05/29 03:47:37;;;;;;;4.03;1.80;;;;;;;;;;4971688;28;20345;-46
2021/05/29 03:50:04;;;;;;;3.78;2.22;;;;;;;;;;4986924;28;20041;-45
2021/05/29 03:52:30;;;;;;;3.25;2.10;;;;;;;;;;4991224;28;20051;-46
2021/05/29 03:54:56;;;;;;;8.68;2.20;;;;;;;;;;4990467;28;20127;-46
2021/05/29 03:57:22;;;;;;;2.30;2.00;;;;;;;;;;4993881;28;20368;-46
2021/05/29 03:59:48;;;;;;;2.88;2.00;;;;;;;;;;4993182;28;20080;-46
2021/05/29 04:02:14;;;;;;;2.70;1.67;;;;;;;;;;4994624;28;20381;-48
2021/05/29 04:04:40;;;;;;;4.43;2.00;;;;;;;;;;4995042;28;20692;-46
2021/05/29 04:07:06;;;;;;;4.45;2.35;;;;;;;;;;4995277;28;20026;-46
2021/05/29 04:09:32;;;;;;;4.97;2.15;;;;;;;;;;4994042;28;20129;-45
2021/05/29 04:11:58;;;;;;;5.22;1.90;;;;;;;;;;4973903;28;20023;-47
2021/05/29 04:14:24;;;;;;;2.17;1.75;;;;;;;;;;4988396;28;20034;-46
2021/05/29 04:16:50;;;;;;;3.60;2.05;;;;;;;;;;4994206;28;20033;-46
2021/05/29 04:19:16;;;;;;;2.20;1.60;;;;;;;;;;4994706;28;20034;-46
2021/05/29 04:21:42;;;;;;;6.30;2.75;;;;;;;;;;4992682;28;20026;-46
2021/05/29 04:24:08;;;;;;;5.80;2.17;;;;;;;;;;4993041;28;20488;-46
2021/05/29 04:26:34;;;;;;;4.72;1.95;;;;;;;;;;4994428;28;20087;-46
2021/05/29 04:29:00;;;;;;;3.17;1.55;;;;;;;;;;4994390;28;20391;-46
2021/05/29 04:31:26;;;;;;;2.00;1.67;;;;;;;;;;4987980;28;20035;-46
2021/05/29 04:33:52;;;;;;;3.33;1.75;;;;;;;;;;4974729;28;20437;-46
2021/05/29 04:36:18;;;;;;;4.22;2.10;;;;;;;;;;4974980;28;20157;-46
2021/05/29 04:38:44;;;;;;;3.35;2.15;;;;;;;;;;4978693;28;20026;-45
2021/05/29 04:41:10;;;;;;;5.88;2.03;;;;;;;;;;4985283;28;20022;-45
2021/05/29 04:43:36;;;;;;;3.78;2.03;;;;;;;;;;4983749;28;20031;-46
2021/05/29 04:46:02;;;;;;;5.03;1.90;;;;;;;;;;4986062;28;20022;-46
2021/05/29 04:48:28;;;;;;;2.72;1.83;;;;;;;;;;4984575;28;20082;-46
2021/05/29 04:51:14;;;;;;;5.05;3.97;;;;;;;;;;4987800;28;20134;-46
2021/05/29 04:53:40;;;;;;;2.15;1.88;;;;;;;;;;4980520;28;20376;-45
2021/05/29 04:56:07;;;;;;;2.42;1.60;;;;;;;;;;4985084;28;20027;-45
2021/05/29 04:58:33;;;;;;;2.13;1.73;;;;;;;;;;4976176;28;20053;-46
2021/05/29 05:00:59;;;;;;;2.20;1.48;;;;;;;;;;4981602;28;20085;-46
2021/05/29 05:03:25;;;;;;;1.65;1.50;;;;;;;;;;4992744;28;20022;-46
2021/05/29 05:05:51;;;;;;;3.03;1.70;;;;;;;;;;4993754;28;20519;-47
2021/05/29 05:08:17;;;;;;;3.55;1.80;;;;;;;;;;4992961;28;20076;-46
2021/05/29 05:10:43;;;;;;;4.00;1.60;;;;;;;;;;4992900;28;20062;-46
2021/05/29 05:13:09;;;;;;;2.10;1.60;;;;;;;;;;4992380;28;20027;-46
2021/05/29 05:15:35;;;;;;;2.30;1.67;;;;;;;;;;4992259;28;20034;-46
2021/05/29 05:18:02;;;;;;;3.35;1.80;;;;;;;;;;4993800;28;20025;-46
2021/05/29 05:20:28;;;;;;;5.57;1.85;;;;;;;;;;4987398;28;20030;-45
2021/05/29 05:22:54;;;;;;;2.67;2.20;;;;;;;;;;4974380;28;20022;-46
2021/05/29 05:25:20;;;;;;;3.15;1.67;;;;;;;;;;4984965;28;20049;-46
2021/05/29 05:27:46;;;;;;;3.15;1.70;;;;;;;;;;4989596;28;20114;-45
2021/05/29 05:30:14;;;;;;;3.63;1.65;;;;;;;;;;4992341;28;20076;-45
2021/05/29 05:32:41;;;;;;;2.45;1.45;;;;;;;;;;4982202;28;20027;-46
2021/05/29 05:35:10;;;;;;;3.33;2.05;;;;;;;;;;4987142;28;20035;-46
2021/05/29 05:37:36;;;;;;;5.38;1.80;;;;;;;;;;4973803;28;20038;-46
2021/05/29 05:40:03;;;;;;;3.70;1.60;;;;;;;;;;4979129;28;20060;-46
2021/05/29 05:42:30;;;;;;;2.30;1.65;;;;;;;;;;4985979;28;20050;-45
2021/05/29 05:44:56;;;;;;;1.80;1.60;;;;;;;;;;4973832;28;20050;-46
2021/05/29 05:47:22;;;;;;;1.55;1.45;;;;;;;;;;4974171;28;20413;-45
2021/05/29 05:49:48;;;;;;;3.55;1.55;;;;;;;;;;4973337;28;20070;-46
2021/05/29 05:52:14;;;;;;;3.08;1.77;;;;;;;;;;4973156;28;20061;-47
2021/05/29 05:54:40;;;;;;;3.08;1.50;;;;;;;;;;4972483;28;20122;-45
2021/05/29 05:57:06;;;;;;;3.72;1.50;;;;;;;;;;4974582;28;20403;-46
2021/05/29 05:59:32;;;;;;;4.60;1.80;;;;;;;;;;4973553;28;20027;-46
2021/05/29 06:01:58;;;;;;;2.25;1.70;;;;;;;;;;4972095;28;20463;-45
2021/05/29 06:04:24;;;;;;;7.50;1.60;;;;;;;;;;4973708;28;20026;-46
2021/05/29 06:06:50;;;;;;;1.95;1.58;;;;;;;;;;4974722;28;20433;-46
2021/05/29 06:09:16;;;;;;;5.07;1.55;;;;;;;;;;4992535;28;20030;-47
2021/05/29 06:11:43;;;;;;;1.95;1.65;;;;;;;;;;4992149;28;20034;-46
2021/05/29 06:19:21;;;;;;;3.78;1.75;;;;;;;;;;4974095;28;20037;-46
2021/05/29 06:21:49;;;;;;;5.00;1.92;;;;;;;;;;4972210;28;20031;-46
2021/05/29 06:24:16;;;;;;;2.35;1.73;;;;;;;;;;4972810;28;20027;-45
2021/05/29 06:26:43;;;;;;;2.08;1.50;;;;;;;;;;4972873;28;20038;-45
2021/05/29 06:29:09;;;;;;;5.70;2.13;;;;;;;;;;4973844;28;20066;-45
2021/05/29 06:31:35;;;;;;;3.72;2.20;;;;;;;;;;4971782;28;20030;-46
2021/05/29 06:34:01;;;;;;;5.70;2.20;;;;;;;;;;4972619;28;20397;-46
2021/05/29 06:36:27;;;;;;;6.00;2.20;;;;;;;;;;4986427;28;20121;-46
2021/05/29 06:38:53;;;;;;;2.03;1.63;;;;;;;;;;4990471;28;20069;-46
2021/05/29 06:41:19;;;;;;;7.47;1.80;;;;;;;;;;4975864;28;20050;-46
2021/05/29 06:43:45;;;;;;;3.15;2.10;;;;;;;;;;4972805;28;20081;-46
2021/05/29 06:46:11;;;;;;;4.03;1.98;;;;;;;;;;4972644;28;20408;-46
2021/05/29 06:48:37;;;;;;;3.85;1.95;;;;;;;;;;4972315;28;20054;-45
2021/05/29 06:51:04;;;;;;;3.00;1.92;;;;;;;;;;4972538;28;20038;-47
2021/05/29 07:01:09;;;;;;;2.22;1.98;;;;;;;;;;4972752;28;20056;-47
2021/05/29 07:03:35;;;;;;;2.50;1.65;;;;;;;;;;4972090;28;20050;-46
2021/05/29 07:06:01;;;;;;;2.50;1.80;;;;;;;;;;4972453;28;20445;-45
2021/05/29 07:08:27;;;;;;;3.47;2.20;;;;;;;;;;4985969;28;20042;-45
2021/05/29 07:10:53;;;;;;;5.97;1.98;;;;;;;;;;4984698;28;20047;-45
2021/05/29 07:13:19;;;;;;;1.92;1.70;;;;;;;;;;4972303;28;20444;-47
2021/05/29 07:15:45;;;;;;;5.05;1.95;;;;;;;;;;4972201;28;20045;-46
2021/05/29 07:18:13;;;;;;;4.65;2.03;;;;;;;;;;4989658;28;20085;-46
2021/05/29 07:20:40;;;;;;;5.95;2.22;;;;;;;;;;4990622;28;20030;-46
2021/05/29 07:23:07;;;;;;;4.05;2.33;;;;;;;;;;4972399;28;20060;-46
2021/05/29 07:25:33;;;;;;;4.25;1.85;;;;;;;;;;4972081;28;20057;-45
2021/05/29 07:27:59;;;;;;;5.13;2.30;;;;;;;;;;4974192;28;20035;-45
2021/05/29 07:30:25;;;;;;;2.40;2.00;;;;;;;;;;4990376;28;20045;-45
2021/05/29 07:32:51;;;;;;;3.78;2.50;;;;;;;;;;4987343;28;20026;-46
2021/05/29 07:35:17;;;;;;;4.38;2.40;;;;;;;;;;4985025;28;20049;-46
2021/05/29 07:37:43;;;;;;;4.63;2.58;;;;;;;;;;4972034;28;20022;-46
2021/05/29 07:40:10;;;;;;;6.95;2.58;;;;;;;;;;4977827;28;20121;-45
2021/05/29 07:42:36;;;;;;;3.88;2.58;;;;;;;;;;4982500;28;20015;-45
2021/05/29 07:45:02;;;;;;;4.57;2.70;;;;;;;;;;4991038;28;20027;-45
2021/05/29 07:47:28;;;;;;;5.10;2.85;;;;;;;;;;4981743;28;20489;-46
2021/05/29 07:49:54;;;;;;;2.55;1.85;;;;;;;;;;4985021;28;20177;-46
2021/05/29 07:52:20;;;;;;;2.72;2.05;;;;;;;;;;4975197;28;20114;-45
2021/05/29 07:54:46;;;;;;;8.70;2.40;;;;;;;;;;4978425;28;20038;-45
2021/05/29 07:57:12;;;;;;;3.08;2.15;;;;;;;;;;4982552;28;20019;-46
2021/05/29 07:59:39;;;;;;;5.75;2.35;;;;;;;;;;4976846;28;20041;-46
2021/05/29 08:02:06;;;;;;;4.63;3.17;;;;;;;;;;4983131;28;20186;-45
2021/05/29 08:04:32;;;;;;;8.82;3.15;;;;;;;;;;4987193;28;20035;-46
2021/05/29 08:06:58;;;;;;;5.40;2.10;;;;;;;;;;4985249;28;20107;-46
2021/05/29 08:09:24;;;;;;;4.30;3.17;;;;;;;;;;4987602;28;20112;-46
2021/05/29 08:11:50;;;;;;;4.72;3.28;;;;;;;;;;4978076;28;20038;-46
2021/05/29 08:14:17;;;;;;;5.82;2.97;;;;;;;;;;4984688;28;20030;-46
2021/05/29 08:16:43;;;;;;;5.78;2.97;;;;;;;;;;4990446;28;20034;-46
2021/05/29 08:19:11;;;;;;;2.45;1.55;;;;;;;;;;4986931;28;20084;-47
2021/05/29 08:21:43;;;;;;;4.93;3.55;;;;;;;;;;4989931;28;20034;-46
2021/05/29 08:24:10;;;;;;;6.18;3.10;;;;;;;;;;4981523;28;20344;-46
2021/05/29 08:26:37;;;;;;;6.93;4.05;;;;;;;;;;4986649;28;20464;-46
2021/05/29 08:29:03;;;;;;;5.55;3.50;;;;;;;;;;4981738;28;20037;-46
2021/05/29 08:31:30;;;;;;;8.18;4.75;;;;;;;;;;4987702;28;20022;-46
2021/05/29 08:33:56;;;;;;;3.88;2.40;;;;;;;;;;4983942;28;20037;-46
2021/05/29 08:36:22;;;;;;;6.85;3.17;;;;;;;;;;4981455;28;20026;-47
2021/05/29 08:38:48;;;;;;;15.68;3.28;;;;;;;;;;4989995;28;20105;-46
2021/05/29 08:41:15;;;;;;;3.95;2.92;;;;;;;;;;4985165;28;20397;-46
2021/05/29 08:43:41;;;;;;;3.85;3.05;;;;;;;;;;4997665;28;20019;-48
2021/05/29 08:46:07;;;;;;;9.27;3.75;;;;;;;;;;4981145;28;20476;-46
2021/05/29 08:48:33;;;;;;;6.55;3.00;;;;;;;;;;4986908;28;20034;-46
2021/05/29 08:51:17;;;;;;;6.97;3.08;;;;;;;;;;4990915;28;20046;-45
2021/05/29 08:53:47;;;;;;;3.80;2.67;;;;;;;;;;4986195;28;20468;-46
2021/05/29 08:56:15;;;;;;;5.70;3.35;;;;;;;;;;4992412;28;20061;-47
2021/05/29 08:58:41;;;;;;;5.80;2.40;;;;;;;;;;4991718;28;20076;-49
2021/05/29 09:01:07;;;;;;;4.03;3.13;;;;;;;;;;4988456;28;20050;-47
2021/05/29 09:03:44;;;;;;;3.17;2.78;;;;;;;;;;4991491;28;20049;-47
2021/05/29 09:06:12;;;;;;;3.72;2.70;;;;;;;;;;4990336;28;20359;-47
2021/05/29 09:08:47;;;;;;;7.00;3.22;;;;;;;;;;4989036;28;20039;-47
2021/05/29 09:11:15;;;;;;;5.47;3.53;;;;;;;;;;4983302;28;20085;-46
2021/05/29 09:13:41;;;;;;;6.90;3.42;;;;;;;;;;4991750;28;20294;-47
2021/05/29 09:16:08;;;;;;;3.70;2.60;;;;;;;;;;4985168;28;20023;-48
2021/05/29 09:18:36;;;;;;;4.07;2.88;;;;;;;;;;4991005;28;20453;-46
2021/05/29 09:21:16;;;;;;;5.65;3.05;;;;;;;;;;4993719;28;20120;-46
2021/05/29 09:24:02;;;;;;;6.03;4.43;;;;;;;;;;4984659;28;20030;-46
2021/05/29 09:26:41;;;;;;;5.60;3.58;;;;;;;;;;4988996;28;20460;-45
2021/05/29 09:29:16;;;;;;;6.13;3.72;;;;;;;;;;4990180;28;20117;-46
2021/05/29 09:31:51;;;;;;;3.42;2.22;;;;;;;;;;4991604;28;20030;-45
2021/05/29 09:34:32;;;;;;;6.43;4.18;;;;;;;;;;4982956;28;20037;-47
2021/05/29 09:37:02;;;;;;;8.25;3.78;;;;;;;;;;4982277;28;20038;-46
2021/05/29 09:39:30;;;;;;;4.45;3.20;;;;;;;;;;4975584;28;20474;-46
2021/05/29 09:41:58;;;;;;;7.72;2.55;;;;;;;;;;4986155;28;20062;-50
2021/05/29 09:44:26;;;;;;;6.55;3.50;;;;;;;;;;4991467;28;20030;-46
2021/05/29 09:46:54;;;;;;;5.13;3.72;;;;;;;;;;4979651;28;20073;-47
2021/05/29 09:49:20;;;;;;;4.43;2.58;;;;;;;;;;4988048;28;20038;-46
2021/05/29 09:51:46;;;;;;;8.55;3.17;;;;;;;;;;4986865;28;20419;-47
2021/05/29 09:54:12;;;;;;;3.30;2.70;;;;;;;;;;4986701;28;20022;-46
2021/05/29 09:56:43;;;;;;;2.05;1.85;;;;;;;;;;4977120;28;20364;-46
2021/05/29 09:59:20;;;;;;;5.72;2.40;;;;;;;;;;4989772;28;20027;-45
2021/05/29 10:01:50;;;;;;;4.15;2.40;;;;;;;;;;4988290;28;20034;-46
2021/05/29 10:04:16;;;;;;;;;;;;;;;;;;4991086;28;20144;-46
2021/05/29 10:06:44;;;;;;;5.07;2.10;;;;;;;;;;4977166;28;19906;-46
2021/05/29 10:09:10;;;;;;;4.93;1.90;;;;;;;;;;4989267;28;20085;-46
2021/05/29 10:11:37;;;;;;;3.53;1.90;;;;;;;;;;4990443;28;20080;-46
2021/05/29 10:14:05;;;;;;;2.28;1.52;;;;;;;;;;4983948;28;20030;-46
2021/05/29 10:16:32;;;;;;;3.50;1.70;;;;;;;;;;4982463;28;20030;-46
2021/05/29 10:19:01;;;;;;;4.47;1.80;;;;;;;;;;4986883;28;20037;-46
2021/05/29 10:21:30;;;;;;;2.85;1.80;;;;;;;;;;4984790;28;20041;-46
2021/05/29 10:23:56;;;;;;;1.48;1.30;;;;;;;;;;4988859;28;20034;-46
2021/05/29 10:26:22;;;;;;;1.55;1.33;;;;;;;;;;4985190;28;20471;-46
2021/05/29 10:28:48;;;;;;;1.88;1.30;;;;;;;;;;4983310;28;20039;-45
2021/05/29 10:31:14;;;;;;;3.95;1.60;;;;;;;;;;4983091;28;20030;-45
2021/05/29 10:33:42;;;;;;;2.38;1.65;;;;;;;;;;4984955;28;20028;-45
2021/05/29 10:36:08;;;;;;;4.80;2.00;;;;;;;;;;4979557;28;20446;-45
2021/05/29 10:38:49;;;;;;;3.80;2.00;;;;;;;;;;4988271;28;20096;-45
2021/05/29 10:41:15;;;;;;;2.00;1.60;;;;;;;;;;4984618;28;20334;-45
2021/05/29 10:43:41;;;;;;;2.15;1.50;;;;;;;;;;4988079;28;20029;-46
2021/05/29 10:46:12;;;;;;;3.20;1.40;;;;;;;;;;4981489;28;20472;-45
2021/05/29 10:48:48;;;;;;;2.67;1.45;;;;;;;;;;4986560;28;20121;-46
2021/05/29 10:51:15;;;;;;;1.95;1.40;;;;;;;;;;4981367;28;20042;-46
2021/05/29 10:53:42;;;;;;;2.95;1.80;;;;;;;;;;4982671;28;20720;-46
2021/05/29 10:56:17;;;;;;;2.45;1.30;;;;;;;;;;4986194;28;20078;-45
2021/05/29 10:58:55;;;;;;;2.45;1.60;;;;;;;;;;4991019;28;20231;-46
2021/05/29 11:01:22;;;;;;;3.05;1.70;;;;;;;;;;4985661;28;20030;-45
2021/05/29 11:04:08;;;;;;;3.78;1.23;;;;;;;;;;4988029;28;20026;-45
2021/05/29 11:06:34;;;;;;;3.78;1.88;;;;;;;;;;4975834;28;20468;-45
2021/05/29 11:09:01;;;;;;;4.13;1.33;;;;;;;;;;4986894;28;20018;-46
2021/05/29 11:11:47;;;;;;;6.90;1.83;;;;;;;;;;4982214;28;20076;-45
2021/05/29 11:14:17;;;;;;;6.03;1.55;;;;;;;;;;4986700;28;20022;-46
2021/05/29 11:16:52;;;;;;;2.28;1.17;;;;;;;;;;4978766;28;20045;-46
2021/05/29 11:19:19;;;;;;;3.83;1.60;;;;;;;;;;4981913;28;20058;-46
2021/05/29 11:22:09;;;;;;;1.33;1.23;;;;;;;;;;4983548;28;20207;-45
2021/05/29 11:24:40;;;;;;;3.28;1.70;;;;;;;;;;4990869;28;20045;-46
2021/05/29 11:27:08;;;;;;;2.63;1.45;;;;;;;;;;4986080;28;20233;-45
2021/05/29 11:29:54;;;;;;;7.13;1.42;;;;;;;;;;4987745;28;20157;-46
2021/05/29 11:33:02;;;;;;;3.78;1.60;;;;;;;;;;4981026;28;20019;-46
2021/05/29 11:35:31;;;;;;;2.70;1.30;;;;;;;;;;4987752;28;20034;-46
2021/05/29 11:38:21;;;;;;;2.17;1.50;;;;;;;;;;4985248;28;20085;-45
2021/05/29 11:41:00;;;;;;;5.57;1.65;;;;;;;;;;4980934;28;20042;-46
2021/05/29 11:43:45;;;;;;;4.47;1.40;;;;;;;;;;4987637;28;20031;-46
2021/05/29 11:46:14;;;;;;;2.65;1.25;;;;;;;;;;4981161;28;20393;-46
2021/05/29 11:48:47;;;;;;;1.60;0.88;;;;;;;;;;4985906;28;20035;-46
2021/05/29 11:51:15;;;;;;;4.03;1.42;;;;;;;;;;4987286;28;20058;-46
2021/05/29 11:53:43;;;;;;;2.15;1.30;;;;;;;;;;4987043;28;20042;-46
2021/05/29 11:56:09;;;;;;;2.33;1.25;;;;;;;;;;4979539;28;20034;-45
2021/05/29 11:58:42;;;;;;;3.63;1.30;;;;;;;;;;4981303;28;20062;-45
2021/05/29 12:01:08;;;;;;;1.45;1.27;;;;;;;;;;4980990;28;20046;-45
2021/05/29 12:03:37;;;;;;;3.53;1.17;;;;;;;;;;4982870;28;20034;-45
2021/05/29 12:06:03;;;;;;;2.72;1.30;;;;;;;;;;4982430;28;20030;-48
2021/05/29 12:08:29;;;;;;;1.92;1.40;;;;;;;;;;4983085;28;20026;-47
2021/05/29 12:10:55;;;;;;;1.85;1.10;;;;;;;;;;4985849;28;20038;-46
2021/05/29 12:13:29;;;;;;;2.55;1.58;;;;;;;;;;4986435;28;20603;-47
2021/05/29 12:15:59;;;;;;;2.10;1.30;;;;;;;;;;4979100;28;20042;-46
2021/05/29 12:18:25;;;;;;;2.20;1.33;;;;;;;;;;4987100;28;20030;-46
2021/05/29 12:20:55;;;;;;;2.05;1.25;;;;;;;;;;4988769;28;20407;-46
2021/05/29 12:23:21;;;;;;;1.80;1.10;;;;;;;;;;4988074;28;20018;-46
2021/05/29 12:25:47;;;;;;;1.10;1.00;;;;;;;;;;4986194;28;20039;-46
2021/05/29 12:28:13;;;;;;;1.63;1.25;;;;;;;;;;4980236;28;20423;-46
2021/05/29 12:30:39;;;;;;;1.38;1.20;;;;;;;;;;4986773;28;20034;-46
2021/05/29 12:33:24;;;;;;;2.13;1.10;;;;;;;;;;4981256;28;20022;-46
2021/05/29 12:36:04;;;;;;;2.15;1.10;;;;;;;;;;4984947;28;20026;-45
2021/05/29 12:38:30;;;;;;;2.13;0.97;;;;;;;;;;4987152;28;20034;-45
2021/05/29 12:41:07;;;;;;;2.92;1.20;;;;;;;;;;4987051;28;20089;-45
2021/05/29 12:43:34;;;;;;;6.47;0.95;;;;;;;;;;4988369;28;20022;-47
2021/05/29 12:46:00;;;;;;;1.60;1.10;;;;;;;;;;4984016;28;20033;-46
2021/05/29 12:48:26;;;;;;;1.75;1.15;;;;;;;;;;4991163;28;20333;-46
2021/05/29 12:53:35;;;;;;;1.70;1.10;;;;;;;;;;4985898;28;20033;-46
2021/05/29 12:56:15;;;;;;;5.03;1.65;;;;;;;;;;4983342;28;20364;-45
2021/05/29 12:58:56;;;;;;;2.47;1.10;;;;;;;;;;4986754;28;20030;-48
2021/05/29 13:09:35;;;;;;;1.50;1.02;;;;;;;;;;4991647;28;20049;-46
2021/05/29 13:12:14;;;;;;;2.00;1.17;;;;;;;;;;4987091;28;20037;-46
2021/05/29 13:14:42;;;;;;;1.52;1.10;;;;;;;;;;4979174;28;20056;-46
2021/05/29 13:17:09;;;;;;;1.27;1.00;;;;;;;;;;4980716;28;20134;-46
2021/05/29 13:20:14;;;;;;;0.95;0.80;;;;;;;;;;4981549;28;20101;-45
2021/05/29 13:22:41;;;;;;;0.88;0.88;;;;;;;;;;4947059;28;20046;-46
2021/05/29 13:25:07;;;;;;;0.80;0.80;;;;;;;;;;4940474;28;20023;-46
2021/05/29 13:27:33;;;;;;;1.00;0.70;;;;;;;;;;4942834;28;20050;-46
2021/05/29 13:30:04;;;;;;;7.53;1.20;;;;;;;;;;4946656;28;20421;-45
2021/05/29 13:32:30;;;;;;;3.10;1.20;;;;;;;;;;4943329;28;20078;-46
2021/05/29 13:34:56;;;;;;;0.88;0.82;;;;;;;;;;4944562;28;20039;-46
2021/05/29 13:37:22;;;;;;;2.60;1.10;;;;;;;;;;4938456;28;20079;-46
2021/05/29 13:39:50;;;;;;;4.50;1.33;;;;;;;;;;4945781;28;20420;-48
2021/05/29 13:42:16;;;;;;;1.13;1.00;;;;;;;;;;4939584;28;20031;-46
2021/05/29 13:44:42;;;;;;;1.92;1.20;;;;;;;;;;4951038;28;20041;-46
2021/05/29 13:47:08;;;;;;;2.58;1.10;;;;;;;;;;4938032;28;20042;-45
2021/05/29 13:49:35;;;;;;;0.80;0.75;;;;;;;;;;4950307;28;20039;-46
2021/05/29 13:52:01;;;;;;;1.13;0.88;;;;;;;;;;4948757;28;20031;-46
2021/05/29 13:54:28;;;;;;;1.52;1.10;;;;;;;;;;4985837;28;20045;-48
2021/05/29 13:56:54;;;;;;;8.52;3.60;;;;;;;;;;4982518;28;20476;-46
2021/05/29 13:59:21;;;;;;;2.83;2.25;;;;;;;;;;4991740;28;20014;-46
2021/05/29 14:01:47;;;;;;;4.60;1.63;;;;;;;;;;4986516;28;20027;-45
2021/05/29 14:04:13;;;;;;;3.13;1.67;;;;;;;;;;4989916;28;20502;-45
2021/05/29 14:06:39;;;;;;;4.53;2.08;;;;;;;;;;4976775;28;20676;-46
2021/05/29 14:09:07;;;;;;;2.35;1.30;;;;;;;;;;4987853;28;20040;-46
2021/05/29 14:11:34;;;;;;;2.53;1.88;;;;;;;;;;4981153;28;20034;-46
2021/05/29 14:14:00;;;;;;;2.33;1.25;;;;;;;;;;4990849;28;20352;-46
2021/05/29 14:16:27;;;;;;;0.82;0.82;;;;;;;;;;4984942;28;20440;-47
2021/05/29 14:18:53;;;;;;;2.58;1.15;;;;;;;;;;4989470;28;20031;-46
2021/05/29 14:21:19;;;;;;;1.42;1.00;;;;;;;;;;4988871;28;20030;-46
2021/05/29 14:23:45;;;;;;;1.48;1.00;;;;;;;;;;4990296;28;20356;-46
2021/05/29 14:26:11;;;;;;;4.78;1.30;;;;;;;;;;4981496;28;20030;-46
2021/05/29 14:28:37;;;;;;;1.58;0.93;;;;;;;;;;4989151;28;20062;-46
2021/05/29 14:31:05;;;;;;;2.10;1.17;;;;;;;;;;4983541;28;20098;-48
2021/05/29 14:33:32;;;;;;;1.90;0.90;;;;;;;;;;4990561;28;20101;-46
2021/05/29 14:35:59;;;;;;;2.33;1.17;;;;;;;;;;4983613;28;20064;-46
2021/05/29 14:38:25;;;;;;;4.05;1.80;;;;;;;;;;4988511;28;20061;-46
2021/05/29 14:40:51;;;;;;;1.10;1.00;;;;;;;;;;4982292;28;20328;-46
2021/05/29 14:43:18;;;;;;;2.10;1.27;;;;;;;;;;4988154;28;20026;-45
2021/05/29 14:45:44;;;;;;;2.05;1.50;;;;;;;;;;4984893;28;20035;-46
2021/05/29 14:48:10;;;;;;;4.28;1.38;;;;;;;;;;4986458;28;20076;-46
2021/05/29 14:50:36;;;;;;;0.95;0.82;;;;;;;;;;4989030;28;20038;-46
2021/05/29 14:53:02;;;;;;;1.63;0.95;;;;;;;;;;4987232;28;20029;-46
2021/05/29 14:55:29;;;;;;;2.15;1.48;;;;;;;;;;4985338;28;20038;-46
2021/05/29 14:57:55;;;;;;;13.07;1.55;;;;;;;;;;4983668;28;20167;-48
2021/05/29 15:00:21;;;;;;;2.53;1.10;;;;;;;;;;4988060;28;20044;-48
2021/05/29 15:02:49;;;;;;;2.78;1.23;;;;;;;;;;4982931;28;20174;-46
2021/05/29 15:05:15;;;;;;;0.77;0.70;;;;;;;;;;4983693;28;20027;-48
2021/05/29 15:07:41;;;;;;;2.40;1.00;;;;;;;;;;4981049;28;20322;-47
2021/05/29 15:10:08;;;;;;;2.72;1.35;;;;;;;;;;4986775;28;20039;-48